Fincastle, Indiana
Current Conditions -  °F | °C
As of 4:15 PM on Tuesday 27 Jan 2015 (Local Time) from K4I7 Reporting Station
Overcast Overcast  
Wind Chill: 25°   Ceiling: 4600
Heat Index: 30°   Visibility: 10mi
Dew Point: 18°   Wind: 5mph
Humidity: 60%   Direction: 350°N
Pressure: 30.15"   Gusts: NA
Location:  39.821°N, 86.7929°W
Report Text: K4I7 272115Z AUTO 35004KT 10SM OVC046 M01/M08 A3015 RMK AO2
Loading
Personal Weather Stations






























Interactive Weather Map New forecast layout! Learn more

10-Day Weather Forecast

Advertisements
Track Severe Weather on mobile